sensor_id;sensor_type;location;lat;lon;timestamp;temperature;humidity
50969;DHT22;36982;51.474;7.228;2023-05-16T00:00:20;10.70;99.90
50969;DHT22;36982;51.474;7.228;2023-05-16T00:02:46;10.70;99.90
50969;DHT22;36982;51.474;7.228;2023-05-16T00:05:12;10.60;99.90
50969;DHT22;36982;51.474;7.228;2023-05-16T00:07:43;10.60;99.90
50969;DHT22;36982;51.474;7.228;2023-05-16T00:10:10;10.70;99.90
50969;DHT22;36982;51.474;7.228;2023-05-16T00:12:36;10.60;99.90
50969;DHT22;36982;51.474;7.228;2023-05-16T00:15:08;10.60;99.90
50969;DHT22;36982;51.474;7.228;2023-05-16T00:17:37;10.50;99.90
50969;DHT22;36982;51.474;7.228;2023-05-16T00:20:03;10.60;99.90
50969;DHT22;36982;51.474;7.228;2023-05-16T00:22:36;10.50;99.90
50969;DHT22;36982;51.474;7.228;2023-05-16T00:25:02;10.50;99.90
50969;DHT22;36982;51.474;7.228;2023-05-16T00:27:28;10.40;99.90
50969;DHT22;36982;51.474;7.228;2023-05-16T00:29:54;10.40;99.90
50969;DHT22;36982;51.474;7.228;2023-05-16T00:32:20;10.40;99.90
50969;DHT22;36982;51.474;7.228;2023-05-16T00:34:46;10.40;99.90
50969;DHT22;36982;51.474;7.228;2023-05-16T00:37:12;10.30;99.90
50969;DHT22;36982;51.474;7.228;2023-05-16T00:39:38;10.40;99.90
50969;DHT22;36982;51.474;7.228;2023-05-16T00:42:05;10.30;99.90
50969;DHT22;36982;51.474;7.228;2023-05-16T00:44:31;10.30;99.90
50969;DHT22;36982;51.474;7.228;2023-05-16T00:46:57;10.30;99.90
50969;DHT22;36982;51.474;7.228;2023-05-16T00:49:24;10.20;99.90
50969;DHT22;36982;51.474;7.228;2023-05-16T00:51:51;10.20;99.90
50969;DHT22;36982;51.474;7.228;2023-05-16T00:54:18;10.10;99.90
50969;DHT22;36982;51.474;7.228;2023-05-16T00:56:46;10.10;99.90
50969;DHT22;36982;51.474;7.228;2023-05-16T00:59:12;10.10;99.90
50969;DHT22;36982;51.474;7.228;2023-05-16T01:01:38;10.20;99.90
50969;DHT22;36982;51.474;7.228;2023-05-16T01:04:06;10.30;99.90
50969;DHT22;36982;51.474;7.228;2023-05-16T01:06:32;10.40;99.90
50969;DHT22;36982;51.474;7.228;2023-05-16T01:08:59;10.50;99.90
50969;DHT22;36982;51.474;7.228;2023-05-16T01:11:35;10.40;99.90
50969;DHT22;36982;51.474;7.228;2023-05-16T01:14:28;10.40;99.90
50969;DHT22;36982;51.474;7.228;2023-05-16T01:17:19;10.30;99.90
50969;DHT22;36982;51.474;7.228;2023-05-16T01:28:01;10.20;99.90
50969;DHT22;36982;51.474;7.228;2023-05-16T01:30:36;10.10;99.90
50969;DHT22;36982;51.474;7.228;2023-05-16T01:33:02;10.10;99.90
50969;DHT22;36982;51.474;7.228;2023-05-16T01:35:28;10.10;99.90
50969;DHT22;36982;51.474;7.228;2023-05-16T01:42:54;9.90;99.90
50969;DHT22;36982;51.474;7.228;2023-05-16T01:45:28;9.80;99.90
50969;DHT22;36982;51.474;7.228;2023-05-16T01:48:17;9.60;99.90
50969;DHT22;36982;51.474;7.228;2023-05-16T01:50:47;9.30;99.90
50969;DHT22;36982;51.474;7.228;2023-05-16T01:53:22;9.20;99.90
50969;DHT22;36982;51.474;7.228;2023-05-16T01:55:56;9.10;99.90
50969;DHT22;36982;51.474;7.228;2023-05-16T01:58:24;9.10;99.90
50969;DHT22;36982;51.474;7.228;2023-05-16T02:00:53;9.10;99.90
50969;DHT22;36982;51.474;7.228;2023-05-16T02:03:19;9.00;99.90
50969;DHT22;36982;51.474;7.228;2023-05-16T02:05:45;8.90;99.90
50969;DHT22;36982;51.474;7.228;2023-05-16T02:08:12;8.90;99.90
50969;DHT22;36982;51.474;7.228;2023-05-16T02:10:37;8.90;99.90
50969;DHT22;36982;51.474;7.228;2023-05-16T02:13:05;8.80;99.90
50969;DHT22;36982;51.474;7.228;2023-05-16T02:15:31;8.80;99.90
50969;DHT22;36982;51.474;7.228;2023-05-16T02:17:56;8.70;99.90
50969;DHT22;36982;51.474;7.228;2023-05-16T02:20:23;8.80;99.90
50969;DHT22;36982;51.474;7.228;2023-05-16T02:22:48;8.80;99.90
50969;DHT22;36982;51.474;7.228;2023-05-16T02:25:14;8.90;99.90
50969;DHT22;36982;51.474;7.228;2023-05-16T02:27:40;8.90;99.90
50969;DHT22;36982;51.474;7.228;2023-05-16T02:30:11;8.90;99.90
50969;DHT22;36982;51.474;7.228;2023-05-16T02:32:38;9.00;99.90
50969;DHT22;36982;51.474;7.228;2023-05-16T02:35:04;9.10;99.90
50969;DHT22;36982;51.474;7.228;2023-05-16T02:37:30;9.00;99.90
50969;DHT22;36982;51.474;7.228;2023-05-16T02:39:55;8.90;99.90
50969;DHT22;36982;51.474;7.228;2023-05-16T02:42:21;8.90;99.90
50969;DHT22;36982;51.474;7.228;2023-05-16T02:44:46;8.90;99.90
50969;DHT22;36982;51.474;7.228;2023-05-16T02:47:12;8.90;99.90
50969;DHT22;36982;51.474;7.228;2023-05-16T02:49:38;9.00;99.90
50969;DHT22;36982;51.474;7.228;2023-05-16T02:52:04;8.90;99.90
50969;DHT22;36982;51.474;7.228;2023-05-16T02:54:30;8.90;99.90
50969;DHT22;36982;51.474;7.228;2023-05-16T02:56:55;8.90;99.90
50969;DHT22;36982;51.474;7.228;2023-05-16T02:59:21;8.80;99.90
50969;DHT22;36982;51.474;7.228;2023-05-16T03:01:47;8.80;99.90
50969;DHT22;36982;51.474;7.228;2023-05-16T03:04:13;9.00;99.90
50969;DHT22;36982;51.474;7.228;2023-05-16T03:06:39;9.00;99.90
50969;DHT22;36982;51.474;7.228;2023-05-16T03:09:05;9.10;99.90
50969;DHT22;36982;51.474;7.228;2023-05-16T03:11:32;9.20;99.90
50969;DHT22;36982;51.474;7.228;2023-05-16T03:13:57;9.20;99.90
50969;DHT22;36982;51.474;7.228;2023-05-16T03:16:24;9.20;99.90
50969;DHT22;36982;51.474;7.228;2023-05-16T03:18:50;9.20;99.90
50969;DHT22;36982;51.474;7.228;2023-05-16T03:21:16;9.20;99.90
50969;DHT22;36982;51.474;7.228;2023-05-16T03:23:42;9.30;99.90
50969;DHT22;36982;51.474;7.228;2023-05-16T03:26:08;9.30;99.90
50969;DHT22;36982;51.474;7.228;2023-05-16T03:28:33;9.20;99.90
50969;DHT22;36982;51.474;7.228;2023-05-16T03:30:59;9.30;99.90
50969;DHT22;36982;51.474;7.228;2023-05-16T03:33:25;9.30;99.90
50969;DHT22;36982;51.474;7.228;2023-05-16T03:35:50;9.30;99.90
50969;DHT22;36982;51.474;7.228;2023-05-16T03:38:17;9.30;99.90
50969;DHT22;36982;51.474;7.228;2023-05-16T03:40:43;9.20;99.90
50969;DHT22;36982;51.474;7.228;2023-05-16T03:43:09;9.10;99.90
50969;DHT22;36982;51.474;7.228;2023-05-16T03:45:34;9.10;99.90
50969;DHT22;36982;51.474;7.228;2023-05-16T03:48:00;9.10;99.90
50969;DHT22;36982;51.474;7.228;2023-05-16T03:50:26;9.00;99.90
50969;DHT22;36982;51.474;7.228;2023-05-16T03:52:51;8.90;99.90
50969;DHT22;36982;51.474;7.228;2023-05-16T03:55:19;9.00;99.90
50969;DHT22;36982;51.474;7.228;2023-05-16T03:57:45;9.00;99.90
50969;DHT22;36982;51.474;7.228;2023-05-16T04:00:12;9.00;99.90
50969;DHT22;36982;51.474;7.228;2023-05-16T04:02:39;8.90;99.70
50969;DHT22;36982;51.474;7.228;2023-05-16T04:05:07;8.80;99.50
50969;DHT22;36982;51.474;7.228;2023-05-16T04:07:33;8.80;99.90
50969;DHT22;36982;51.474;7.228;2023-05-16T04:09:58;8.70;99.70
50969;DHT22;36982;51.474;7.228;2023-05-16T04:12:24;8.70;99.90
50969;DHT22;36982;51.474;7.228;2023-05-16T04:14:50;8.70;99.10
50969;DHT22;36982;51.474;7.228;2023-05-16T04:17:15;8.60;99.60
50969;DHT22;36982;51.474;7.228;2023-05-16T04:19:41;8.60;99.20
50969;DHT22;36982;51.474;7.228;2023-05-16T04:22:07;8.50;99.20
50969;DHT22;36982;51.474;7.228;2023-05-16T04:24:33;8.40;99.40
50969;DHT22;36982;51.474;7.228;2023-05-16T04:26:58;8.40;99.50
50969;DHT22;36982;51.474;7.228;2023-05-16T04:29:24;8.50;99.90
50969;DHT22;36982;51.474;7.228;2023-05-16T04:31:50;8.50;99.90
50969;DHT22;36982;51.474;7.228;2023-05-16T04:34:16;8.60;99.90
50969;DHT22;36982;51.474;7.228;2023-05-16T04:36:42;8.60;99.20
50969;DHT22;36982;51.474;7.228;2023-05-16T04:39:08;8.60;99.20
50969;DHT22;36982;51.474;7.228;2023-05-16T04:41:33;8.60;99.20
50969;DHT22;36982;51.474;7.228;2023-05-16T04:44:03;8.60;99.50
50969;DHT22;36982;51.474;7.228;2023-05-16T04:46:29;8.70;99.90
50969;DHT22;36982;51.474;7.228;2023-05-16T04:48:55;8.80;99.90
50969;DHT22;36982;51.474;7.228;2023-05-16T04:51:21;8.90;99.90
50969;DHT22;36982;51.474;7.228;2023-05-16T04:53:47;9.00;99.80
50969;DHT22;36982;51.474;7.228;2023-05-16T04:56:13;9.00;99.40
50969;DHT22;36982;51.474;7.228;2023-05-16T04:58:39;8.90;99.00
50969;DHT22;36982;51.474;7.228;2023-05-16T05:01:30;9.00;99.10
50969;DHT22;36982;51.474;7.228;2023-05-16T05:03:56;8.90;98.40
50969;DHT22;36982;51.474;7.228;2023-05-16T05:06:22;9.00;97.90
50969;DHT22;36982;51.474;7.228;2023-05-16T05:08:48;9.10;98.10
50969;DHT22;36982;51.474;7.228;2023-05-16T05:11:13;9.00;98.00
50969;DHT22;36982;51.474;7.228;2023-05-16T05:13:39;8.90;97.30
50969;DHT22;36982;51.474;7.228;2023-05-16T05:16:05;9.00;98.10
50969;DHT22;36982;51.474;7.228;2023-05-16T05:18:31;9.10;97.50
50969;DHT22;36982;51.474;7.228;2023-05-16T05:20:58;9.20;95.50
50969;DHT22;36982;51.474;7.228;2023-05-16T05:23:24;9.40;96.00
50969;DHT22;36982;51.474;7.228;2023-05-16T05:25:50;9.60;94.80
50969;DHT22;36982;51.474;7.228;2023-05-16T05:28:15;9.70;93.40
50969;DHT22;36982;51.474;7.228;2023-05-16T05:30:41;10.30;94.10
50969;DHT22;36982;51.474;7.228;2023-05-16T05:33:07;10.70;90.80
50969;DHT22;36982;51.474;7.228;2023-05-16T05:35:32;11.00;90.10
50969;DHT22;36982;51.474;7.228;2023-05-16T05:37:58;11.20;83.10
50969;DHT22;36982;51.474;7.228;2023-05-16T05:40:27;11.50;76.60
50969;DHT22;36982;51.474;7.228;2023-05-16T05:42:53;11.50;18.40
50969;DHT22;36982;51.474;7.228;2023-05-16T05:45:18;11.70;24.50
50969;DHT22;36982;51.474;7.228;2023-05-16T05:47:44;11.90;9.10
50969;DHT22;36982;51.474;7.228;2023-05-16T05:50:10;11.80;1.00
50969;DHT22;36982;51.474;7.228;2023-05-16T05:52:37;11.90;1.00
50969;DHT22;36982;51.474;7.228;2023-05-16T05:55:03;11.80;1.00
50969;DHT22;36982;51.474;7.228;2023-05-16T05:57:29;11.70;1.00
50969;DHT22;36982;51.474;7.228;2023-05-16T05:59:55;11.50;10.00
50969;DHT22;36982;51.474;7.228;2023-05-16T06:02:20;11.30;7.60
50969;DHT22;36982;51.474;7.228;2023-05-16T06:04:46;11.40;11.20
50969;DHT22;36982;51.474;7.228;2023-05-16T06:07:12;11.40;3.70
50969;DHT22;36982;51.474;7.228;2023-05-16T06:09:40;11.60;10.00
50969;DHT22;36982;51.474;7.228;2023-05-16T06:12:07;12.00;1.00
50969;DHT22;36982;51.474;7.228;2023-05-16T06:14:33;11.90;1.00
50969;DHT22;36982;51.474;7.228;2023-05-16T06:16:58;12.00;1.00
50969;DHT22;36982;51.474;7.228;2023-05-16T06:19:24;11.70;1.00
50969;DHT22;36982;51.474;7.228;2023-05-16T06:21:50;11.80;1.00
50969;DHT22;36982;51.474;7.228;2023-05-16T06:24:15;11.70;1.00
50969;DHT22;36982;51.474;7.228;2023-05-16T06:26:41;11.60;1.00
50969;DHT22;36982;51.474;7.228;2023-05-16T06:29:07;11.10;1.00
50969;DHT22;36982;51.474;7.228;2023-05-16T06:31:33;10.90;14.00
50969;DHT22;36982;51.474;7.228;2023-05-16T06:33:58;10.80;15.00
50969;DHT22;36982;51.474;7.228;2023-05-16T06:36:24;10.90;9.60
50969;DHT22;36982;51.474;7.228;2023-05-16T06:38:50;11.00;1.00
50969;DHT22;36982;51.474;7.228;2023-05-16T06:41:15;10.50;5.90
50969;DHT22;36982;51.474;7.228;2023-05-16T06:43:41;10.60;18.90
50969;DHT22;36982;51.474;7.228;2023-05-16T06:46:07;10.50;1.00
50969;DHT22;36982;51.474;7.228;2023-05-16T06:48:32;10.40;1.00
50969;DHT22;36982;51.474;7.228;2023-05-16T06:50:58;10.50;1.00
50969;DHT22;36982;51.474;7.228;2023-05-16T06:53:24;10.50;1.00
50969;DHT22;36982;51.474;7.228;2023-05-16T06:55:50;10.30;1.00
50969;DHT22;36982;51.474;7.228;2023-05-16T06:58:16;10.30;1.00
50969;DHT22;36982;51.474;7.228;2023-05-16T07:00:41;10.20;1.00
50969;DHT22;36982;51.474;7.228;2023-05-16T07:03:14;10.20;1.00
50969;DHT22;36982;51.474;7.228;2023-05-16T07:05:40;10.40;1.00
50969;DHT22;36982;51.474;7.228;2023-05-16T07:08:08;10.60;1.00
50969;DHT22;36982;51.474;7.228;2023-05-16T07:10:34;10.60;1.00
50969;DHT22;36982;51.474;7.228;2023-05-16T07:13:01;10.60;99.90
50969;DHT22;36982;51.474;7.228;2023-05-16T07:15:27;10.50;99.90
50969;DHT22;36982;51.474;7.228;2023-05-16T07:17:52;10.40;99.90
50969;DHT22;36982;51.474;7.228;2023-05-16T07:20:18;10.40;1.00
50969;DHT22;36982;51.474;7.228;2023-05-16T07:22:44;10.40;1.00
50969;DHT22;36982;51.474;7.228;2023-05-16T07:25:10;10.30;99.90
50969;DHT22;36982;51.474;7.228;2023-05-16T07:27:39;10.30;1.00
50969;DHT22;36982;51.474;7.228;2023-05-16T07:30:10;10.40;99.90
50969;DHT22;36982;51.474;7.228;2023-05-16T07:32:36;10.50;99.90
50969;DHT22;36982;51.474;7.228;2023-05-16T07:35:03;10.40;99.90
50969;DHT22;36982;51.474;7.228;2023-05-16T07:37:29;10.50;99.90
50969;DHT22;36982;51.474;7.228;2023-05-16T07:39:54;10.60;99.90
50969;DHT22;36982;51.474;7.228;2023-05-16T07:42:20;10.70;99.90
50969;DHT22;36982;51.474;7.228;2023-05-16T07:44:46;10.60;99.90
50969;DHT22;36982;51.474;7.228;2023-05-16T07:47:12;10.70;99.90
50969;DHT22;36982;51.474;7.228;2023-05-16T07:49:37;10.80;99.90
50969;DHT22;36982;51.474;7.228;2023-05-16T07:52:03;10.80;99.90
50969;DHT22;36982;51.474;7.228;2023-05-16T07:54:29;10.90;99.90
50969;DHT22;36982;51.474;7.228;2023-05-16T07:56:56;11.00;99.90
50969;DHT22;36982;51.474;7.228;2023-05-16T07:59:21;11.10;99.90
50969;DHT22;36982;51.474;7.228;2023-05-16T08:01:47;11.30;99.90
50969;DHT22;36982;51.474;7.228;2023-05-16T08:04:13;11.50;99.90
50969;DHT22;36982;51.474;7.228;2023-05-16T08:06:38;11.50;1.00
50969;DHT22;36982;51.474;7.228;2023-05-16T08:09:04;11.50;1.00
50969;DHT22;36982;51.474;7.228;2023-05-16T08:11:30;11.60;99.90
50969;DHT22;36982;51.474;7.228;2023-05-16T08:13:56;11.70;99.90
50969;DHT22;36982;51.474;7.228;2023-05-16T08:16:21;11.80;99.90
50969;DHT22;36982;51.474;7.228;2023-05-16T08:18:47;11.80;99.90
50969;DHT22;36982;51.474;7.228;2023-05-16T08:21:13;11.70;22.20
50969;DHT22;36982;51.474;7.228;2023-05-16T08:23:39;11.70;99.90
50969;DHT22;36982;51.474;7.228;2023-05-16T08:26:05;11.60;99.90
50969;DHT22;36982;51.474;7.228;2023-05-16T08:28:30;11.70;99.90
50969;DHT22;36982;51.474;7.228;2023-05-16T08:30:56;11.80;39.20
50969;DHT22;36982;51.474;7.228;2023-05-16T08:33:22;11.90;99.90
50969;DHT22;36982;51.474;7.228;2023-05-16T08:35:50;12.00;99.90
50969;DHT22;36982;51.474;7.228;2023-05-16T08:38:17;12.00;28.10
50969;DHT22;36982;51.474;7.228;2023-05-16T08:40:43;11.90;99.90
50969;DHT22;36982;51.474;7.228;2023-05-16T08:43:09;11.90;6.40
50969;DHT22;36982;51.474;7.228;2023-05-16T08:45:35;12.10;99.90
50969;DHT22;36982;51.474;7.228;2023-05-16T08:48:01;12.00;99.90
50969;DHT22;36982;51.474;7.228;2023-05-16T08:50:31;11.90;1.00
50969;DHT22;36982;51.474;7.228;2023-05-16T08:52:57;12.00;1.00
50969;DHT22;36982;51.474;7.228;2023-05-16T08:55:24;12.20;79.80
50969;DHT22;36982;51.474;7.228;2023-05-16T08:57:51;12.40;1.00
50969;DHT22;36982;51.474;7.228;2023-05-16T09:00:19;12.50;99.90
50969;DHT22;36982;51.474;7.228;2023-05-16T09:02:45;12.50;99.90
50969;DHT22;36982;51.474;7.228;2023-05-16T09:05:13;12.40;99.90
50969;DHT22;36982;51.474;7.228;2023-05-16T09:07:40;12.20;99.90
50969;DHT22;36982;51.474;7.228;2023-05-16T09:10:06;12.20;79.50
50969;DHT22;36982;51.474;7.228;2023-05-16T09:12:33;12.10;99.90
50969;DHT22;36982;51.474;7.228;2023-05-16T09:15:03;12.20;99.90
50969;DHT22;36982;51.474;7.228;2023-05-16T09:17:43;12.00;1.00
50969;DHT22;36982;51.474;7.228;2023-05-16T09:20:12;12.00;44.00
50969;DHT22;36982;51.474;7.228;2023-05-16T09:22:39;12.00;3.60
50969;DHT22;36982;51.474;7.228;2023-05-16T09:25:05;12.10;44.70
50969;DHT22;36982;51.474;7.228;2023-05-16T09:27:31;12.10;77.40
50969;DHT22;36982;51.474;7.228;2023-05-16T09:29:58;12.10;1.00
50969;DHT22;36982;51.474;7.228;2023-05-16T09:32:24;12.30;1.00
50969;DHT22;36982;51.474;7.228;2023-05-16T09:34:52;12.40;1.00
50969;DHT22;36982;51.474;7.228;2023-05-16T09:37:18;12.40;1.00
50969;DHT22;36982;51.474;7.228;2023-05-16T09:39:49;12.40;1.00
50969;DHT22;36982;51.474;7.228;2023-05-16T09:42:16;12.40;99.90
50969;DHT22;36982;51.474;7.228;2023-05-16T09:44:50;12.50;99.90
50969;DHT22;36982;51.474;7.228;2023-05-16T09:47:17;12.50;99.90
50969;DHT22;36982;51.474;7.228;2023-05-16T09:49:44;12.70;99.90
50969;DHT22;36982;51.474;7.228;2023-05-16T09:52:14;12.70;99.90
50969;DHT22;36982;51.474;7.228;2023-05-16T09:54:40;13.00;99.90
50969;DHT22;36982;51.474;7.228;2023-05-16T09:57:06;13.10;94.00
50969;DHT22;36982;51.474;7.228;2023-05-16T09:59:39;12.90;29.20
50969;DHT22;36982;51.474;7.228;2023-05-16T10:02:06;12.80;94.90
50969;DHT22;36982;51.474;7.228;2023-05-16T10:04:35;12.70;99.90
50969;DHT22;36982;51.474;7.228;2023-05-16T10:07:02;12.80;99.90
50969;DHT22;36982;51.474;7.228;2023-05-16T10:09:34;13.10;99.90
50969;DHT22;36982;51.474;7.228;2023-05-16T10:12:01;13.20;99.90
50969;DHT22;36982;51.474;7.228;2023-05-16T10:14:33;13.30;1.00
50969;DHT22;36982;51.474;7.228;2023-05-16T10:16:59;13.20;73.90
50969;DHT22;36982;51.474;7.228;2023-05-16T10:19:25;13.30;1.00
50969;DHT22;36982;51.474;7.228;2023-05-16T10:21:55;13.40;1.00
50969;DHT22;36982;51.474;7.228;2023-05-16T10:24:53;13.50;1.00
50969;DHT22;36982;51.474;7.228;2023-05-16T10:27:21;13.60;99.90
50969;DHT22;36982;51.474;7.228;2023-05-16T10:29:48;13.80;99.90
50969;DHT22;36982;51.474;7.228;2023-05-16T10:32:15;13.90;99.90
50969;DHT22;36982;51.474;7.228;2023-05-16T10:34:41;13.90;99.90
50969;DHT22;36982;51.474;7.228;2023-05-16T10:37:07;13.90;99.90
50969;DHT22;36982;51.474;7.228;2023-05-16T10:39:35;13.80;63.50
50969;DHT22;36982;51.474;7.228;2023-05-16T10:42:01;13.70;96.20
50969;DHT22;36982;51.474;7.228;2023-05-16T10:44:31;13.70;99.90
50969;DHT22;36982;51.474;7.228;2023-05-16T10:46:59;13.60;99.90
50969;DHT22;36982;51.474;7.228;2023-05-16T10:49:26;13.40;99.90
50969;DHT22;36982;51.474;7.228;2023-05-16T10:52:03;13.40;99.90
50969;DHT22;36982;51.474;7.228;2023-05-16T10:54:37;13.50;99.90
50969;DHT22;36982;51.474;7.228;2023-05-16T10:57:15;13.50;99.90
50969;DHT22;36982;51.474;7.228;2023-05-16T10:59:46;13.30;99.90
50969;DHT22;36982;51.474;7.228;2023-05-16T11:02:29;13.30;99.90
50969;DHT22;36982;51.474;7.228;2023-05-16T11:04:58;13.30;99.90
50969;DHT22;36982;51.474;7.228;2023-05-16T11:07:31;13.40;99.90
50969;DHT22;36982;51.474;7.228;2023-05-16T11:10:23;13.50;99.90
50969;DHT22;36982;51.474;7.228;2023-05-16T11:12:50;13.70;99.90
50969;DHT22;36982;51.474;7.228;2023-05-16T11:15:22;13.90;99.90
50969;DHT22;36982;51.474;7.228;2023-05-16T11:17:49;13.90;99.90
50969;DHT22;36982;51.474;7.228;2023-05-16T11:20:31;14.00;99.90
50969;DHT22;36982;51.474;7.228;2023-05-16T11:23:18;14.20;99.90
50969;DHT22;36982;51.474;7.228;2023-05-16T11:25:52;14.40;99.90
50969;DHT22;36982;51.474;7.228;2023-05-16T11:28:19;14.40;99.90
50969;DHT22;36982;51.474;7.228;2023-05-16T11:30:50;14.20;99.90
50969;DHT22;36982;51.474;7.228;2023-05-16T11:33:17;14.20;99.90
50969;DHT22;36982;51.474;7.228;2023-05-16T11:35:44;14.40;99.90
50969;DHT22;36982;51.474;7.228;2023-05-16T11:38:25;14.60;99.90
50969;DHT22;36982;51.474;7.228;2023-05-16T11:40:52;14.60;99.90
50969;DHT22;36982;51.474;7.228;2023-05-16T11:43:18;14.50;99.90
50969;DHT22;36982;51.474;7.228;2023-05-16T11:45:43;14.40;99.90
50969;DHT22;36982;51.474;7.228;2023-05-16T11:48:10;14.40;99.90
50969;DHT22;36982;51.474;7.228;2023-05-16T11:50:36;14.20;99.90
50969;DHT22;36982;51.474;7.228;2023-05-16T11:53:02;13.70;1.00
50969;DHT22;36982;51.474;7.228;2023-05-16T11:55:29;13.30;98.50
50969;DHT22;36982;51.474;7.228;2023-05-16T11:57:57;13.00;1.00
50969;DHT22;36982;51.474;7.228;2023-05-16T12:00:24;12.80;99.90
50969;DHT22;36982;51.474;7.228;2023-05-16T12:02:52;12.80;99.90
50969;DHT22;36982;51.474;7.228;2023-05-16T12:05:19;12.90;99.90
50969;DHT22;36982;51.474;7.228;2023-05-16T12:07:47;12.90;99.90
50969;DHT22;36982;51.474;7.228;2023-05-16T12:10:14;12.90;1.00
50969;DHT22;36982;51.474;7.228;2023-05-16T12:12:42;13.00;99.90
50969;DHT22;36982;51.474;7.228;2023-05-16T12:15:09;13.10;99.90
50969;DHT22;36982;51.474;7.228;2023-05-16T12:17:36;13.30;99.90
50969;DHT22;36982;51.474;7.228;2023-05-16T12:20:03;13.50;52.50
50969;DHT22;36982;51.474;7.228;2023-05-16T12:22:38;13.70;99.90
50969;DHT22;36982;51.474;7.228;2023-05-16T12:25:26;14.00;99.90
50969;DHT22;36982;51.474;7.228;2023-05-16T12:27:57;14.50;1.00
50969;DHT22;36982;51.474;7.228;2023-05-16T12:30:24;14.80;99.90
50969;DHT22;36982;51.474;7.228;2023-05-16T12:33:01;15.00;99.90
50969;DHT22;36982;51.474;7.228;2023-05-16T12:35:32;15.00;99.90
50969;DHT22;36982;51.474;7.228;2023-05-16T12:38:08;14.70;99.90
50969;DHT22;36982;51.474;7.228;2023-05-16T12:40:38;14.50;99.90
50969;DHT22;36982;51.474;7.228;2023-05-16T12:43:15;14.20;99.90
50969;DHT22;36982;51.474;7.228;2023-05-16T12:45:41;14.20;51.70
50969;DHT22;36982;51.474;7.228;2023-05-16T12:48:12;14.20;1.00
50969;DHT22;36982;51.474;7.228;2023-05-16T12:50:39;14.20;1.00
50969;DHT22;36982;51.474;7.228;2023-05-16T12:53:10;14.20;1.00
50969;DHT22;36982;51.474;7.228;2023-05-16T12:55:37;14.40;1.00
50969;DHT22;36982;51.474;7.228;2023-05-16T12:58:02;14.60;99.90
50969;DHT22;36982;51.474;7.228;2023-05-16T13:00:28;14.70;99.90
50969;DHT22;36982;51.474;7.228;2023-05-16T13:02:54;14.80;99.90
50969;DHT22;36982;51.474;7.228;2023-05-16T13:05:20;14.90;99.90
50969;DHT22;36982;51.474;7.228;2023-05-16T13:07:50;15.00;99.90
50969;DHT22;36982;51.474;7.228;2023-05-16T13:10:17;15.00;99.90
50969;DHT22;36982;51.474;7.228;2023-05-16T13:12:43;14.90;99.90
50969;DHT22;36982;51.474;7.228;2023-05-16T13:15:09;14.90;99.90
50969;DHT22;36982;51.474;7.228;2023-05-16T13:17:37;14.80;99.90
50969;DHT22;36982;51.474;7.228;2023-05-16T13:20:04;14.80;99.90
50969;DHT22;36982;51.474;7.228;2023-05-16T13:22:35;14.80;34.80
50969;DHT22;36982;51.474;7.228;2023-05-16T13:25:02;14.80;1.00
50969;DHT22;36982;51.474;7.228;2023-05-16T13:27:29;14.90;1.00
50969;DHT22;36982;51.474;7.228;2023-05-16T13:29:55;14.80;99.90
50969;DHT22;36982;51.474;7.228;2023-05-16T13:32:21;14.90;99.90
50969;DHT22;36982;51.474;7.228;2023-05-16T13:34:46;14.80;1.00
50969;DHT22;36982;51.474;7.228;2023-05-16T13:37:12;14.60;1.00
50969;DHT22;36982;51.474;7.228;2023-05-16T13:39:38;14.40;1.00
50969;DHT22;36982;51.474;7.228;2023-05-16T13:42:04;14.30;1.00
50969;DHT22;36982;51.474;7.228;2023-05-16T13:44:29;14.30;1.00
50969;DHT22;36982;51.474;7.228;2023-05-16T13:46:56;14.20;99.90
50969;DHT22;36982;51.474;7.228;2023-05-16T13:49:22;14.20;1.00
50969;DHT22;36982;51.474;7.228;2023-05-16T13:51:48;14.20;99.90
50969;DHT22;36982;51.474;7.228;2023-05-16T13:54:14;14.00;99.90
50969;DHT22;36982;51.474;7.228;2023-05-16T13:56:39;13.90;99.90
50969;DHT22;36982;51.474;7.228;2023-05-16T13:59:05;14.20;1.00
50969;DHT22;36982;51.474;7.228;2023-05-16T14:01:31;14.50;99.90
50969;DHT22;36982;51.474;7.228;2023-05-16T14:03:56;14.60;99.90
50969;DHT22;36982;51.474;7.228;2023-05-16T14:06:22;14.80;99.90
50969;DHT22;36982;51.474;7.228;2023-05-16T14:08:48;15.00;99.90
50969;DHT22;36982;51.474;7.228;2023-05-16T14:11:14;15.20;99.90
50969;DHT22;36982;51.474;7.228;2023-05-16T14:13:39;15.20;99.90
50969;DHT22;36982;51.474;7.228;2023-05-16T14:16:05;15.20;99.90
50969;DHT22;36982;51.474;7.228;2023-05-16T14:18:31;15.20;99.90
50969;DHT22;36982;51.474;7.228;2023-05-16T14:20:57;15.10;99.90
50969;DHT22;36982;51.474;7.228;2023-05-16T14:23:23;14.80;99.90
50969;DHT22;36982;51.474;7.228;2023-05-16T14:25:49;14.60;99.90
50969;DHT22;36982;51.474;7.228;2023-05-16T14:28:14;14.40;99.90
50969;DHT22;36982;51.474;7.228;2023-05-16T14:30:41;14.30;99.90
50969;DHT22;36982;51.474;7.228;2023-05-16T14:33:06;14.50;99.90
50969;DHT22;36982;51.474;7.228;2023-05-16T14:35:32;14.60;99.90
50969;DHT22;36982;51.474;7.228;2023-05-16T14:37:58;14.70;99.90
50969;DHT22;36982;51.474;7.228;2023-05-16T14:40:23;14.60;99.90
50969;DHT22;36982;51.474;7.228;2023-05-16T14:42:49;14.60;99.90
50969;DHT22;36982;51.474;7.228;2023-05-16T14:45:15;14.50;99.90
50969;DHT22;36982;51.474;7.228;2023-05-16T14:47:41;14.40;99.90
50969;DHT22;36982;51.474;7.228;2023-05-16T14:50:08;14.40;99.90
50969;DHT22;36982;51.474;7.228;2023-05-16T14:52:36;14.40;99.90
50969;DHT22;36982;51.474;7.228;2023-05-16T14:55:01;14.40;99.90
50969;DHT22;36982;51.474;7.228;2023-05-16T14:57:27;14.30;99.90
50969;DHT22;36982;51.474;7.228;2023-05-16T14:59:53;14.30;99.90
50969;DHT22;36982;51.474;7.228;2023-05-16T15:02:19;14.30;99.90
50969;DHT22;36982;51.474;7.228;2023-05-16T15:04:45;14.30;99.90
50969;DHT22;36982;51.474;7.228;2023-05-16T15:07:11;14.20;99.90
50969;DHT22;36982;51.474;7.228;2023-05-16T15:09:36;14.10;99.90
50969;DHT22;36982;51.474;7.228;2023-05-16T15:12:02;14.10;99.90
50969;DHT22;36982;51.474;7.228;2023-05-16T15:14:28;14.10;99.90
50969;DHT22;36982;51.474;7.228;2023-05-16T15:16:54;14.00;99.90
50969;DHT22;36982;51.474;7.228;2023-05-16T15:19:19;13.90;99.90
50969;DHT22;36982;51.474;7.228;2023-05-16T15:21:45;13.80;99.90
50969;DHT22;36982;51.474;7.228;2023-05-16T15:24:11;13.70;99.90
50969;DHT22;36982;51.474;7.228;2023-05-16T15:26:38;13.70;99.90
50969;DHT22;36982;51.474;7.228;2023-05-16T15:29:04;13.70;99.90
50969;DHT22;36982;51.474;7.228;2023-05-16T15:31:29;13.80;1.00
50969;DHT22;36982;51.474;7.228;2023-05-16T15:33:59;13.80;27.00
50969;DHT22;36982;51.474;7.228;2023-05-16T15:36:24;13.80;62.60
50969;DHT22;36982;51.474;7.228;2023-05-16T15:38:50;13.70;65.40
50969;DHT22;36982;51.474;7.228;2023-05-16T15:41:17;13.80;36.40
50969;DHT22;36982;51.474;7.228;2023-05-16T15:43:42;13.70;53.70
50969;DHT22;36982;51.474;7.228;2023-05-16T15:46:08;13.60;4.80
50969;DHT22;36982;51.474;7.228;2023-05-16T15:48:36;13.50;39.80
50969;DHT22;36982;51.474;7.228;2023-05-16T15:51:01;13.40;99.90